createdAt,value
2019-03-17T00:00:40.686Z,813.17
2019-03-17T00:01:40.696Z,813.16
2019-03-17T00:02:40.708Z,813.16
2019-03-17T00:03:40.720Z,813.13
2019-03-17T00:04:40.728Z,813.13
2019-03-17T00:05:40.742Z,813.16
2019-03-17T00:06:40.751Z,813.09
2019-03-17T00:07:40.766Z,813.08
2019-03-17T00:08:40.777Z,813.06
2019-03-17T00:09:40.791Z,813.04
2019-03-17T00:10:40.803Z,813.03
2019-03-17T00:11:40.816Z,813.03
2019-03-17T00:12:40.827Z,813.03
2019-03-17T00:13:40.833Z,812.97
2019-03-17T00:14:40.845Z,812.99
2019-03-17T00:15:40.861Z,812.98
2019-03-17T00:16:40.872Z,812.95
2019-03-17T00:17:42.012Z,812.94
2019-03-17T00:18:40.893Z,812.91
2019-03-17T00:19:40.907Z,812.89
2019-03-17T00:20:40.917Z,812.87
2019-03-17T00:21:40.932Z,812.88
2019-03-17T00:22:40.944Z,812.89
2019-03-17T00:23:40.958Z,812.90
2019-03-17T00:24:40.966Z,812.90
2019-03-17T00:25:40.979Z,812.93
2019-03-17T00:26:40.989Z,812.90
2019-03-17T00:27:41.001Z,812.91
2019-03-17T00:28:41.010Z,812.87
2019-03-17T00:29:41.025Z,812.84
2019-03-17T00:30:41.037Z,812.87
2019-03-17T00:31:41.052Z,812.86
2019-03-17T00:32:41.060Z,812.86
2019-03-17T00:33:41.081Z,812.85
2019-03-17T00:34:44.318Z,812.82
2019-03-17T00:35:41.092Z,812.81
2019-03-17T00:36:41.107Z,812.79
2019-03-17T00:37:41.120Z,812.77
2019-03-17T00:38:41.127Z,812.77
2019-03-17T00:39:41.138Z,812.74
2019-03-17T00:40:41.152Z,812.76
2019-03-17T00:41:41.162Z,812.73
2019-03-17T00:42:41.178Z,812.71
2019-03-17T00:43:41.185Z,812.76
2019-03-17T00:44:41.196Z,812.73
2019-03-17T00:45:41.213Z,812.73
2019-03-17T00:46:41.224Z,812.69
2019-03-17T00:47:41.267Z,812.72
2019-03-17T00:48:41.242Z,812.66
2019-03-17T00:49:41.263Z,812.67
2019-03-17T00:50:41.266Z,812.74
2019-03-17T00:51:41.280Z,812.71
2019-03-17T00:52:41.288Z,812.70
2019-03-17T00:53:41.304Z,812.66
2019-03-17T00:54:41.317Z,812.63
2019-03-17T00:55:41.327Z,812.54
2019-03-17T00:56:41.337Z,812.59
2019-03-17T00:57:41.353Z,812.61
2019-03-17T00:58:41.362Z,812.64
2019-03-17T00:59:41.370Z,812.58
2019-03-17T01:00:41.388Z,812.56
2019-03-17T01:01:41.395Z,812.50
2019-03-17T01:02:41.405Z,812.48
2019-03-17T01:03:41.421Z,812.46
2019-03-17T01:04:41.429Z,812.46
2019-03-17T01:05:41.437Z,812.42
2019-03-17T01:06:41.452Z,812.43
2019-03-17T01:07:41.468Z,812.41
2019-03-17T01:08:41.473Z,812.41
2019-03-17T01:09:41.487Z,812.34
2019-03-17T01:10:41.497Z,812.32
2019-03-17T01:11:41.509Z,812.27
2019-03-17T01:12:41.517Z,812.28
2019-03-17T01:13:41.530Z,812.25
2019-03-17T01:14:41.543Z,812.27
2019-03-17T01:15:41.554Z,812.23
2019-03-17T01:16:41.563Z,812.19
2019-03-17T01:17:41.576Z,812.19
2019-03-17T01:18:41.588Z,812.17
2019-03-17T01:19:41.599Z,812.19
2019-03-17T01:20:41.609Z,812.20
2019-03-17T01:21:41.635Z,812.19
2019-03-17T01:22:41.637Z,812.15
2019-03-17T01:23:41.651Z,812.16
2019-03-17T01:24:41.656Z,812.13
2019-03-17T01:25:41.671Z,812.11
2019-03-17T01:26:41.678Z,812.09
2019-03-17T01:27:41.690Z,812.08
2019-03-17T01:28:41.706Z,812.09
2019-03-17T01:29:41.715Z,812.08
2019-03-17T01:30:41.731Z,812.05
2019-03-17T01:31:41.741Z,812.04
2019-03-17T01:32:41.749Z,812.04
2019-03-17T01:33:41.758Z,812.05
2019-03-17T01:34:41.769Z,812.04
2019-03-17T01:35:41.781Z,811.98
2019-03-17T01:36:41.800Z,811.95
2019-03-17T01:37:41.803Z,811.94
2019-03-17T01:38:41.815Z,811.91
2019-03-17T01:39:41.831Z,811.87
2019-03-17T01:40:41.841Z,811.83
2019-03-17T01:41:41.853Z,811.81
2019-03-17T01:42:41.860Z,811.80
2019-03-17T01:43:41.877Z,811.84
2019-03-17T01:44:41.888Z,811.83
2019-03-17T01:45:41.898Z,811.85
2019-03-17T01:46:41.910Z,811.82
2019-03-17T01:47:41.926Z,811.76
2019-03-17T01:48:41.931Z,811.77
2019-03-17T01:49:41.950Z,811.80
2019-03-17T01:50:41.954Z,811.75
2019-03-17T01:51:41.968Z,811.74
2019-03-17T01:52:41.979Z,811.72
2019-03-17T01:53:41.985Z,811.70
2019-03-17T01:54:41.997Z,811.68
2019-03-17T01:55:42.013Z,811.68
2019-03-17T01:56:42.019Z,811.68
2019-03-17T01:57:42.029Z,811.67
2019-03-17T01:58:42.046Z,811.62
2019-03-17T01:59:42.054Z,811.59
2019-03-17T02:00:42.068Z,811.57
2019-03-17T02:01:42.076Z,811.56
2019-03-17T02:02:42.089Z,811.59
2019-03-17T02:03:42.100Z,811.55
2019-03-17T02:04:42.110Z,811.58
2019-03-17T02:05:42.122Z,811.58
2019-03-17T02:06:42.133Z,811.59
2019-03-17T02:07:42.151Z,811.53
2019-03-17T02:08:42.161Z,811.47
2019-03-17T02:09:42.171Z,811.46
2019-03-17T02:10:42.179Z,811.50
2019-03-17T02:11:42.197Z,811.46
2019-03-17T02:12:42.200Z,811.48
2019-03-17T02:13:42.267Z,811.45
2019-03-17T02:14:42.233Z,811.43
2019-03-17T02:15:42.236Z,811.44
2019-03-17T02:16:42.248Z,811.46
2019-03-17T02:17:42.262Z,811.42
2019-03-17T02:18:42.272Z,811.45
2019-03-17T02:19:42.292Z,811.45
2019-03-17T02:20:42.294Z,811.45
2019-03-17T02:21:42.306Z,811.40
2019-03-17T02:22:42.317Z,811.33
2019-03-17T02:23:42.331Z,811.39
2019-03-17T02:24:42.337Z,811.39
2019-03-17T02:25:42.348Z,811.44
2019-03-17T02:26:42.361Z,811.42
2019-03-17T02:27:42.371Z,811.39
2019-03-17T02:28:42.385Z,811.35
2019-03-17T02:29:42.394Z,811.35
2019-03-17T02:30:42.412Z,811.34
2019-03-17T02:31:42.418Z,811.36
2019-03-17T02:32:42.430Z,811.35
2019-03-17T02:33:42.446Z,811.40
2019-03-17T02:34:42.451Z,811.38
2019-03-17T02:35:42.510Z,811.36
2019-03-17T02:36:42.476Z,811.31
2019-03-17T02:37:42.493Z,811.32
2019-03-17T02:38:42.533Z,811.32
2019-03-17T02:39:42.512Z,811.27
2019-03-17T02:40:42.527Z,811.31
2019-03-17T02:41:42.530Z,811.36
2019-03-17T02:42:42.545Z,811.34
2019-03-17T02:43:42.558Z,811.35
2019-03-17T02:44:42.563Z,811.34
2019-03-17T02:45:42.579Z,811.29
2019-03-17T02:46:42.592Z,811.36
2019-03-17T02:47:42.602Z,811.35
2019-03-17T02:48:42.609Z,811.37
2019-03-17T02:49:42.622Z,811.32
2019-03-17T02:50:42.630Z,811.29
2019-03-17T02:51:42.649Z,811.34
2019-03-17T02:52:42.657Z,811.32
2019-03-17T02:53:42.666Z,811.32
2019-03-17T02:54:42.676Z,811.33
2019-03-17T02:55:42.686Z,811.32
2019-03-17T02:56:42.706Z,811.28
2019-03-17T02:57:42.710Z,811.27
2019-03-17T02:58:42.726Z,811.28
2019-03-17T02:59:42.735Z,811.21
2019-03-17T03:00:42.740Z,811.26
2019-03-17T03:01:42.754Z,811.26
2019-03-17T03:02:42.768Z,811.26
2019-03-17T03:03:42.783Z,811.31
2019-03-17T03:04:42.787Z,811.33
2019-03-17T03:05:54.638Z,811.37
2019-03-17T03:06:42.807Z,811.34
2019-03-17T03:07:42.819Z,811.30
2019-03-17T03:08:42.834Z,811.21
2019-03-17T03:09:42.841Z,811.22
2019-03-17T03:10:42.856Z,811.22
2019-03-17T03:11:42.867Z,811.22
2019-03-17T03:12:42.877Z,811.18
2019-03-17T03:13:42.975Z,811.14
2019-03-17T03:14:42.898Z,811.14
2019-03-17T03:15:42.912Z,811.17
2019-03-17T03:16:42.922Z,811.25
2019-03-17T03:17:42.931Z,811.23
2019-03-17T03:18:42.942Z,811.14
2019-03-17T03:19:42.960Z,811.03
2019-03-17T03:20:42.965Z,810.98
2019-03-17T03:21:42.978Z,810.99
2019-03-17T03:22:42.989Z,811.05
2019-03-17T03:23:42.999Z,811.08
2019-03-17T03:24:43.004Z,811.06
2019-03-17T03:25:43.024Z,811.07
2019-03-17T03:26:43.028Z,811.05
2019-03-17T03:27:43.045Z,811.03
2019-03-17T03:28:43.055Z,811.10
2019-03-17T03:29:43.063Z,811.13
2019-03-17T03:30:43.098Z,811.06
2019-03-17T03:31:43.085Z,811.00
2019-03-17T03:32:43.099Z,810.97
2019-03-17T03:33:43.111Z,810.97
2019-03-17T03:34:43.116Z,810.94
2019-03-17T03:35:43.135Z,810.97
2019-03-17T03:36:43.143Z,810.98
2019-03-17T03:37:43.170Z,810.99
2019-03-17T03:38:43.158Z,810.96
2019-03-17T03:39:43.169Z,810.94
2019-03-17T03:40:43.185Z,811.02
2019-03-17T03:41:43.193Z,811.03
2019-03-17T03:42:43.207Z,811.03
2019-03-17T03:43:43.211Z,810.97
2019-03-17T03:44:43.229Z,810.86
2019-03-17T03:45:43.241Z,810.90
2019-03-17T03:46:43.251Z,810.87
2019-03-17T03:47:43.266Z,810.94
2019-03-17T03:48:43.270Z,811.06
2019-03-17T03:49:43.283Z,811.00
2019-03-17T03:50:43.291Z,811.02
2019-03-17T03:51:43.302Z,811.08
2019-03-17T03:52:43.314Z,811.04
2019-03-17T03:53:43.324Z,811.01
2019-03-17T03:54:43.334Z,811.02
2019-03-17T03:55:43.356Z,810.99
2019-03-17T03:56:43.357Z,810.89
2019-03-17T03:57:43.369Z,810.97
2019-03-17T03:58:43.377Z,810.98
2019-03-17T03:59:43.389Z,810.99
2019-03-17T04:00:43.397Z,811.01
2019-03-17T04:01:43.415Z,810.92
2019-03-17T04:02:43.429Z,810.91
2019-03-17T04:03:43.430Z,810.99
2019-03-17T04:04:43.439Z,811.07
2019-03-17T04:05:43.450Z,811.06
2019-03-17T04:06:43.460Z,811.02
2019-03-17T04:07:43.487Z,810.99
2019-03-17T04:08:43.482Z,810.99
2019-03-17T04:09:43.498Z,811.03
2019-03-17T04:10:43.507Z,811.04
2019-03-17T04:11:43.517Z,811.05
2019-03-17T04:12:43.526Z,811.04
2019-03-17T04:13:43.538Z,811.02
2019-03-17T04:14:43.551Z,810.92
2019-03-17T04:15:43.559Z,810.88
2019-03-17T04:16:43.579Z,810.87
2019-03-17T04:17:43.592Z,810.88
2019-03-17T04:18:43.598Z,810.86
2019-03-17T04:19:43.605Z,810.92
2019-03-17T04:20:43.612Z,810.88
2019-03-17T04:21:43.625Z,810.82
2019-03-17T04:22:43.647Z,810.87
2019-03-17T04:23:43.646Z,810.96
2019-03-17T04:24:43.657Z,810.93
2019-03-17T04:25:43.690Z,810.74
2019-03-17T04:26:43.696Z,810.70
2019-03-17T04:27:43.694Z,810.86
2019-03-17T04:28:43.701Z,810.86
2019-03-17T04:29:43.720Z,810.81
2019-03-17T04:30:43.727Z,810.87
2019-03-17T04:31:43.737Z,810.92
2019-03-17T04:32:43.748Z,810.85
2019-03-17T04:33:43.761Z,810.81
2019-03-17T04:34:43.769Z,810.77
2019-03-17T04:35:43.783Z,810.68
2019-03-17T04:36:43.792Z,810.62
2019-03-17T04:37:43.801Z,810.66
2019-03-17T04:38:44.191Z,810.70
2019-03-17T04:39:43.834Z,810.66
2019-03-17T04:40:43.836Z,810.67
2019-03-17T04:41:43.843Z,810.68
2019-03-17T04:42:43.858Z,810.75
2019-03-17T04:43:43.873Z,810.76
2019-03-17T04:44:43.877Z,810.70
2019-03-17T04:45:43.917Z,810.60
2019-03-17T04:46:43.904Z,810.65
2019-03-17T04:47:44.015Z,810.68
2019-03-17T04:48:43.939Z,810.61
2019-03-17T04:49:43.938Z,810.64
2019-03-17T04:50:43.947Z,810.64
2019-03-17T04:51:43.956Z,810.68
2019-03-17T04:52:43.964Z,810.59
2019-03-17T04:53:43.979Z,810.65
2019-03-17T04:54:43.993Z,810.73
2019-03-17T04:55:44.001Z,810.65
2019-03-17T04:56:44.008Z,810.55
2019-03-17T04:57:44.026Z,810.52
2019-03-17T04:58:44.038Z,810.55
2019-03-17T04:59:44.046Z,810.58
2019-03-17T05:00:44.053Z,810.59
2019-03-17T05:01:44.064Z,810.54
2019-03-17T05:02:44.116Z,810.54
2019-03-17T05:03:44.091Z,810.50
2019-03-17T05:04:44.111Z,810.47
2019-03-17T05:05:44.111Z,810.43
2019-03-17T05:06:52.415Z,810.37
2019-03-17T05:07:44.193Z,810.31
2019-03-17T05:08:44.145Z,810.37
2019-03-17T05:09:44.163Z,810.41
2019-03-17T05:10:44.167Z,810.49
2019-03-17T05:11:44.176Z,810.44
2019-03-17T05:12:44.185Z,810.48
2019-03-17T05:13:44.197Z,810.39
2019-03-17T05:14:44.209Z,810.39
2019-03-17T05:15:44.221Z,810.35
2019-03-17T05:16:44.233Z,810.36
2019-03-17T05:17:44.245Z,810.39
2019-03-17T05:18:44.256Z,810.40
2019-03-17T05:19:44.262Z,810.36
2019-03-17T05:20:44.275Z,810.36
2019-03-17T05:21:44.284Z,810.39
2019-03-17T05:22:44.300Z,810.41
2019-03-17T05:23:44.309Z,810.42
2019-03-17T05:24:44.322Z,810.44
2019-03-17T05:25:44.330Z,810.42
2019-03-17T05:26:44.338Z,810.47
2019-03-17T05:27:44.353Z,810.44
2019-03-17T05:28:44.364Z,810.45
2019-03-17T05:29:44.369Z,810.45
2019-03-17T05:30:44.383Z,810.44
2019-03-17T05:31:44.397Z,810.40
2019-03-17T05:32:44.403Z,810.40
2019-03-17T05:33:44.416Z,810.37
2019-03-17T05:34:44.428Z,810.36
2019-03-17T05:35:44.438Z,810.36
2019-03-17T05:36:44.445Z,810.33
2019-03-17T05:37:44.456Z,810.36
2019-03-17T05:38:44.469Z,810.37
2019-03-17T05:39:44.482Z,810.37
2019-03-17T05:40:44.488Z,810.38
2019-03-17T05:41:44.498Z,810.35
2019-03-17T05:42:44.508Z,810.36
2019-03-17T05:43:44.522Z,810.34
2019-03-17T05:44:44.529Z,810.32
2019-03-17T05:45:44.538Z,810.27
2019-03-17T05:46:44.549Z,810.33
2019-03-17T05:47:44.569Z,810.36
2019-03-17T05:48:44.576Z,810.37
2019-03-17T05:49:44.581Z,810.38
2019-03-17T05:50:44.592Z,810.36
2019-03-17T05:51:44.603Z,810.34
2019-03-17T05:52:44.611Z,810.32
2019-03-17T05:53:44.625Z,810.33
2019-03-17T05:54:44.638Z,810.28
2019-03-17T05:55:44.662Z,810.27
2019-03-17T05:56:44.655Z,810.26
2019-03-17T05:57:44.668Z,810.21
2019-03-17T05:58:44.679Z,810.22
2019-03-17T05:59:44.687Z,810.22
2019-03-17T06:00:44.699Z,810.27
2019-03-17T06:01:44.707Z,810.26
2019-03-17T06:02:44.726Z,810.30
2019-03-17T06:03:44.730Z,810.26
2019-03-17T06:04:44.738Z,810.26
2019-03-17T06:05:44.747Z,810.21
2019-03-17T06:06:44.766Z,810.13
2019-03-17T06:07:44.774Z,810.17
2019-03-17T06:08:44.778Z,810.19
2019-03-17T06:09:44.789Z,810.19
2019-03-17T06:10:44.801Z,810.28
2019-03-17T06:11:44.815Z,810.25
2019-03-17T06:12:44.823Z,810.22
2019-03-17T06:13:44.842Z,810.19
2019-03-17T06:14:44.847Z,810.19
2019-03-17T06:15:44.921Z,810.16
2019-03-17T06:16:44.870Z,810.20
2019-03-17T06:17:44.878Z,810.18
2019-03-17T06:18:44.884Z,810.15
2019-03-17T06:19:44.897Z,810.15
2019-03-17T06:20:44.909Z,810.17
2019-03-17T06:21:44.921Z,810.17
2019-03-17T06:22:44.930Z,810.21
2019-03-17T06:23:44.943Z,810.20
2019-03-17T06:24:44.948Z,810.22
2019-03-17T06:25:44.961Z,810.23
2019-03-17T06:26:44.972Z,810.22
2019-03-17T06:27:44.983Z,810.24
2019-03-17T06:28:44.997Z,810.23
2019-03-17T06:29:45.006Z,810.22
2019-03-17T06:30:45.015Z,810.23
2019-03-17T06:31:45.029Z,810.21
2019-03-17T06:32:45.035Z,810.21
2019-03-17T06:33:45.048Z,810.23
2019-03-17T06:34:45.058Z,810.28
2019-03-17T06:35:45.070Z,810.21
2019-03-17T06:36:45.080Z,810.24
2019-03-17T06:37:45.090Z,810.25
2019-03-17T06:38:45.096Z,810.29
2019-03-17T06:39:45.108Z,810.24
2019-03-17T06:40:45.123Z,810.26
2019-03-17T06:41:45.135Z,810.20
2019-03-17T06:42:45.157Z,810.09
2019-03-17T06:43:45.154Z,810.12
2019-03-17T06:44:45.206Z,810.15
2019-03-17T06:45:45.170Z,810.15
2019-03-17T06:46:45.183Z,810.16
2019-03-17T06:47:45.197Z,810.17
2019-03-17T06:48:45.239Z,810.20
2019-03-17T06:49:45.214Z,810.17
2019-03-17T06:50:45.250Z,810.15
2019-03-17T06:51:45.242Z,810.19
2019-03-17T06:52:45.251Z,810.24
2019-03-17T06:53:55.790Z,810.22
2019-03-17T06:54:45.270Z,810.16
2019-03-17T06:55:45.281Z,810.18
2019-03-17T06:56:45.293Z,810.20
2019-03-17T06:57:45.300Z,810.23
2019-03-17T06:58:45.313Z,810.15
2019-03-17T06:59:45.322Z,810.12
2019-03-17T07:00:45.347Z,810.15
2019-03-17T07:01:45.343Z,810.11
2019-03-17T07:02:45.361Z,810.18
2019-03-17T07:03:45.368Z,810.19
2019-03-17T07:04:45.384Z,810.22
2019-03-17T07:05:45.393Z,810.21
2019-03-17T07:06:45.400Z,810.23
2019-03-17T07:07:45.413Z,810.17
2019-03-17T07:08:45.417Z,810.19
2019-03-17T07:09:45.431Z,810.04
2019-03-17T07:10:45.461Z,810.08
2019-03-17T07:11:45.452Z,810.08
2019-03-17T07:12:45.466Z,810.07
2019-03-17T07:13:45.532Z,810.01
2019-03-17T07:14:45.488Z,810.05
2019-03-17T07:15:45.498Z,810.02
2019-03-17T07:16:45.508Z,809.99
2019-03-17T07:17:45.523Z,809.98
2019-03-17T07:18:45.531Z,809.98
2019-03-17T07:19:45.538Z,809.95
2019-03-17T07:20:45.551Z,809.96
2019-03-17T07:21:45.561Z,809.97
2019-03-17T07:22:45.572Z,809.92
2019-03-17T07:23:45.584Z,809.94
2019-03-17T07:24:45.596Z,809.91
2019-03-17T07:25:45.605Z,809.91
2019-03-17T07:26:45.616Z,809.92
2019-03-17T07:27:45.632Z,809.92
2019-03-17T07:28:45.643Z,809.86
2019-03-17T07:29:45.649Z,809.85
2019-03-17T07:30:45.664Z,809.89
2019-03-17T07:31:45.678Z,809.90
2019-03-17T07:32:45.685Z,809.88
2019-03-17T07:33:45.700Z,809.90
2019-03-17T07:34:45.712Z,809.91
2019-03-17T07:35:46.487Z,809.92
2019-03-17T07:36:45.732Z,809.96
2019-03-17T07:37:56.235Z,809.93
2019-03-17T07:38:45.759Z,809.96
2019-03-17T07:39:45.773Z,809.91
2019-03-17T07:40:45.776Z,809.96
2019-03-17T07:41:45.787Z,809.93
2019-03-17T07:42:45.801Z,809.90
2019-03-17T07:43:45.813Z,809.92
2019-03-17T07:44:45.823Z,809.94
2019-03-17T07:45:45.844Z,809.94
2019-03-17T07:46:45.847Z,809.94
2019-03-17T07:47:45.863Z,809.92
2019-03-17T07:48:45.877Z,809.90
2019-03-17T07:49:45.883Z,809.91
2019-03-17T07:50:45.896Z,809.93
2019-03-17T07:51:45.908Z,809.95
2019-03-17T07:52:45.919Z,809.96
2019-03-17T07:53:45.932Z,809.95
2019-03-17T07:54:45.942Z,809.97
2019-03-17T07:55:45.958Z,809.96
2019-03-17T07:56:45.972Z,809.88
2019-03-17T07:57:45.980Z,809.91
2019-03-17T07:58:46.001Z,809.87
2019-03-17T07:59:46.015Z,809.93
2019-03-17T08:00:46.030Z,809.98
2019-03-17T08:01:46.044Z,809.89
2019-03-17T08:02:46.047Z,809.85
2019-03-17T08:03:46.057Z,809.86
2019-03-17T08:04:46.344Z,809.87
2019-03-17T08:05:46.079Z,809.85
2019-03-17T08:06:46.093Z,809.88
2019-03-17T08:07:46.105Z,809.93
2019-03-17T08:08:46.172Z,809.90
2019-03-17T08:09:46.133Z,809.90
2019-03-17T08:10:46.148Z,809.89
2019-03-17T08:11:46.155Z,809.86
2019-03-17T08:12:46.167Z,809.91
2019-03-17T08:13:46.184Z,809.91
2019-03-17T08:14:46.194Z,809.95
2019-03-17T08:15:46.204Z,809.95
2019-03-17T08:16:46.222Z,809.92
2019-03-17T08:17:46.233Z,809.92
2019-03-17T08:18:46.247Z,809.88
2019-03-17T08:19:46.254Z,809.93
2019-03-17T08:20:46.271Z,809.88
2019-03-17T08:21:46.283Z,809.90
2019-03-17T08:22:46.297Z,809.92
2019-03-17T08:23:46.307Z,809.91
2019-03-17T08:24:46.321Z,809.91
2019-03-17T08:25:46.336Z,809.90
2019-03-17T08:26:46.346Z,809.90
2019-03-17T08:27:46.359Z,809.93
2019-03-17T08:28:46.374Z,809.95
2019-03-17T08:29:46.388Z,809.90
2019-03-17T08:30:52.921Z,809.92
2019-03-17T08:31:46.411Z,809.92
2019-03-17T08:32:46.423Z,809.92
2019-03-17T08:33:46.439Z,809.87
2019-03-17T08:34:46.449Z,809.89
2019-03-17T08:35:46.464Z,809.91
2019-03-17T08:36:46.476Z,809.92
2019-03-17T08:37:46.488Z,809.89
2019-03-17T08:38:46.508Z,809.89
2019-03-17T08:39:46.520Z,809.85
2019-03-17T08:40:46.542Z,809.84
2019-03-17T08:41:46.542Z,809.81
2019-03-17T08:42:46.564Z,809.84
2019-03-17T08:43:54.314Z,809.78
2019-03-17T08:44:46.584Z,809.84
2019-03-17T08:45:46.594Z,809.86
2019-03-17T08:46:46.613Z,809.84
2019-03-17T08:47:57.275Z,809.80
2019-03-17T08:48:46.643Z,809.83
2019-03-17T08:49:46.648Z,809.80
2019-03-17T08:50:46.668Z,809.77
2019-03-17T08:51:46.681Z,809.80
2019-03-17T08:52:46.694Z,809.74
2019-03-17T08:53:46.705Z,809.73
2019-03-17T08:54:46.719Z,809.74
2019-03-17T08:55:46.731Z,809.78
2019-03-17T08:56:46.743Z,809.78
2019-03-17T08:57:46.758Z,809.75
2019-03-17T08:58:46.774Z,809.77
2019-03-17T08:59:46.788Z,809.80
2019-03-17T09:00:46.801Z,809.80
2019-03-17T09:01:47.752Z,809.80
2019-03-17T09:02:46.834Z,809.76
2019-03-17T09:03:46.842Z,809.77
2019-03-17T09:04:46.861Z,809.74
2019-03-17T09:05:46.867Z,809.69
2019-03-17T09:06:46.893Z,809.65
2019-03-17T09:07:46.896Z,809.71
2019-03-17T09:08:46.914Z,809.74
2019-03-17T09:09:46.928Z,809.69
2019-03-17T09:10:46.936Z,809.77
2019-03-17T09:11:46.954Z,809.74
2019-03-17T09:12:46.965Z,809.69
2019-03-17T09:13:47.059Z,809.67
2019-03-17T09:14:46.994Z,809.66
2019-03-17T09:15:47.010Z,809.62
2019-03-17T09:16:47.021Z,809.67
2019-03-17T09:17:47.035Z,809.65
2019-03-17T09:18:47.054Z,809.64
2019-03-17T09:19:47.071Z,809.63
2019-03-17T09:20:47.081Z,809.60
2019-03-17T09:21:47.089Z,809.64
2019-03-17T09:22:47.106Z,809.60
2019-03-17T09:23:47.121Z,809.65
2019-03-17T09:24:47.138Z,809.68
2019-03-17T09:25:47.146Z,809.59
2019-03-17T09:26:47.166Z,809.56
2019-03-17T09:27:47.181Z,809.52
2019-03-17T09:28:47.195Z,809.64
2019-03-17T09:29:47.209Z,809.59
2019-03-17T09:30:47.223Z,809.55
2019-03-17T09:31:47.246Z,809.59
2019-03-17T09:32:47.249Z,809.52
2019-03-17T09:33:47.268Z,809.50
2019-03-17T09:34:47.279Z,809.55
2019-03-17T09:35:47.291Z,809.50
2019-03-17T09:36:47.311Z,809.54
2019-03-17T09:37:47.327Z,809.52
2019-03-17T09:38:47.838Z,809.49
2019-03-17T09:39:47.356Z,809.51
2019-03-17T09:40:47.365Z,809.52
2019-03-17T09:41:47.386Z,809.43
2019-03-17T09:42:47.405Z,809.42
2019-03-17T09:43:47.415Z,809.38
2019-03-17T09:44:47.429Z,809.41
2019-03-17T09:45:47.441Z,809.37
2019-03-17T09:46:47.457Z,809.36
2019-03-17T09:47:47.473Z,809.43
2019-03-17T09:48:47.493Z,809.44
2019-03-17T09:49:47.503Z,809.36
2019-03-17T09:50:47.518Z,809.34
2019-03-17T09:51:47.537Z,809.33
2019-03-17T09:52:47.563Z,809.36
2019-03-17T09:53:47.564Z,809.35
2019-03-17T09:54:47.582Z,809.29
2019-03-17T09:55:47.598Z,809.37
2019-03-17T09:56:47.612Z,809.31
2019-03-17T09:57:47.629Z,809.12
2019-03-17T09:58:47.645Z,809.29
2019-03-17T09:59:47.661Z,809.27
2019-03-17T10:00:47.673Z,809.32
2019-03-17T10:01:47.693Z,809.27
2019-03-17T10:02:47.705Z,809.27
2019-03-17T10:03:47.723Z,809.36
2019-03-17T10:04:47.751Z,809.21
2019-03-17T10:05:49.547Z,809.18
2019-03-17T10:06:47.769Z,809.14
2019-03-17T10:07:47.785Z,809.31
2019-03-17T10:08:59.556Z,809.26
2019-03-17T10:09:47.818Z,809.11
2019-03-17T10:10:47.839Z,809.21
2019-03-17T10:11:47.852Z,809.19
2019-03-17T10:12:47.869Z,809.21
2019-03-17T10:13:47.892Z,809.17
2019-03-17T10:14:47.895Z,809.24
2019-03-17T10:15:47.915Z,809.17
2019-03-17T10:16:47.932Z,809.19
2019-03-17T10:17:47.943Z,809.18
2019-03-17T10:18:47.962Z,809.09
2019-03-17T10:19:47.984Z,808.84
2019-03-17T10:20:47.994Z,808.94
2019-03-17T10:21:48.007Z,809.02
2019-03-17T10:22:48.024Z,809.05
2019-03-17T10:23:48.039Z,809.00
2019-03-17T10:24:48.057Z,809.07
2019-03-17T10:25:48.069Z,809.16
2019-03-17T10:26:48.087Z,809.03
2019-03-17T10:27:48.101Z,809.03
2019-03-17T10:28:48.118Z,809.11
2019-03-17T10:29:48.129Z,809.24
2019-03-17T10:30:48.144Z,809.15
2019-03-17T10:31:48.161Z,808.99
2019-03-17T10:32:48.179Z,809.04
2019-03-17T10:33:48.189Z,808.93
2019-03-17T10:34:48.212Z,809.09
2019-03-17T10:35:48.222Z,808.85
2019-03-17T10:36:48.235Z,808.83
2019-03-17T10:37:48.250Z,809.01
2019-03-17T10:38:48.267Z,808.88
2019-03-17T10:39:48.285Z,808.81
2019-03-17T10:40:48.300Z,809.04
2019-03-17T10:41:48.319Z,808.90
2019-03-17T10:42:48.355Z,808.96
2019-03-17T10:43:48.343Z,809.07
2019-03-17T10:44:48.355Z,808.92
2019-03-17T10:45:48.370Z,809.06
2019-03-17T10:46:48.387Z,809.03
2019-03-17T10:47:48.400Z,808.99
2019-03-17T10:48:48.419Z,808.97
2019-03-17T10:49:48.440Z,808.87
2019-03-17T10:50:49.891Z,808.84
2019-03-17T10:51:48.462Z,809.07
2019-03-17T10:52:48.487Z,808.75
2019-03-17T10:53:48.492Z,808.86
2019-03-17T10:54:48.536Z,808.86
2019-03-17T10:55:48.517Z,808.95
2019-03-17T10:56:48.532Z,808.93
2019-03-17T10:57:48.554Z,808.75
2019-03-17T10:58:48.564Z,808.55
2019-03-17T10:59:48.576Z,808.86
2019-03-17T11:00:48.592Z,808.83
2019-03-17T11:01:48.609Z,808.84
2019-03-17T11:02:48.657Z,808.78
2019-03-17T11:03:48.634Z,808.76
2019-03-17T11:04:48.650Z,808.52
2019-03-17T11:05:48.667Z,808.54
2019-03-17T11:06:48.683Z,808.83
2019-03-17T11:07:48.737Z,808.75
2019-03-17T11:08:48.710Z,808.64
2019-03-17T11:09:48.727Z,808.57
2019-03-17T11:10:48.741Z,808.47
2019-03-17T11:11:48.761Z,808.49
2019-03-17T11:12:48.785Z,808.62
2019-03-17T11:13:48.780Z,808.61
2019-03-17T11:14:48.796Z,808.58
2019-03-17T11:15:48.815Z,808.40
2019-03-17T11:16:48.832Z,808.64
2019-03-17T11:17:48.840Z,808.37
2019-03-17T11:18:48.855Z,808.45
2019-03-17T11:19:48.867Z,808.56
2019-03-17T11:20:48.881Z,808.47
2019-03-17T11:21:48.899Z,808.57
2019-03-17T11:22:48.915Z,808.59
2019-03-17T11:23:48.924Z,808.59
2019-03-17T11:24:48.938Z,808.42
2019-03-17T11:25:48.951Z,808.52
2019-03-17T11:26:48.971Z,808.55
2019-03-17T11:27:48.983Z,808.46
2019-03-17T11:28:49.000Z,808.50
2019-03-17T11:29:49.009Z,808.34
2019-03-17T11:30:49.027Z,808.50
2019-03-17T11:31:49.040Z,808.51
2019-03-17T11:32:49.056Z,808.47
2019-03-17T11:33:49.067Z,808.35
2019-03-17T11:34:49.084Z,808.39
2019-03-17T11:35:49.097Z,808.32
2019-03-17T11:36:49.112Z,808.32
2019-03-17T11:37:49.128Z,808.36
2019-03-17T11:38:49.166Z,808.36
2019-03-17T11:39:49.159Z,808.31
2019-03-17T11:40:49.169Z,808.32
2019-03-17T11:41:49.184Z,808.35
2019-03-17T11:42:50.116Z,808.27
2019-03-17T11:43:49.215Z,808.37
2019-03-17T11:44:49.228Z,808.63
2019-03-17T11:45:49.244Z,808.34
2019-03-17T11:46:49.263Z,808.33
2019-03-17T11:47:49.278Z,808.48
2019-03-17T11:48:49.291Z,808.24
2019-03-17T11:49:49.303Z,808.19
2019-03-17T11:50:49.318Z,808.40
2019-03-17T11:51:49.337Z,808.50
2019-03-17T11:52:49.353Z,808.39
2019-03-17T11:53:49.363Z,808.33
2019-03-17T11:54:49.378Z,808.60
2019-03-17T11:55:49.391Z,808.59
2019-03-17T11:56:49.405Z,808.27
2019-03-17T11:57:49.420Z,808.09
2019-03-17T11:58:49.434Z,808.44
2019-03-17T11:59:49.448Z,808.29
2019-03-17T12:00:49.468Z,808.20
2019-03-17T12:01:49.477Z,808.24
2019-03-17T12:02:49.491Z,808.12
2019-03-17T12:03:49.506Z,808.05
2019-03-17T12:04:49.592Z,808.21
2019-03-17T12:05:49.534Z,808.20
2019-03-17T12:06:49.547Z,808.18
2019-03-17T12:07:49.562Z,808.53
2019-03-17T12:08:49.577Z,808.25
2019-03-17T12:09:50.628Z,808.31
2019-03-17T12:10:49.613Z,808.15
2019-03-17T12:11:49.633Z,808.22
2019-03-17T12:12:49.637Z,807.81
2019-03-17T12:13:49.650Z,808.22
2019-03-17T12:14:49.762Z,808.28
2019-03-17T12:15:49.686Z,808.38
2019-03-17T12:16:49.693Z,808.40
2019-03-17T12:17:49.707Z,808.35
2019-03-17T12:18:49.721Z,808.29
2019-03-17T12:19:49.739Z,808.22
2019-03-17T12:20:49.756Z,808.21
2019-03-17T12:21:49.766Z,808.04
2019-03-17T12:22:49.778Z,808.25
2019-03-17T12:23:49.793Z,808.37
2019-03-17T12:24:49.812Z,808.23
2019-03-17T12:25:49.823Z,808.04
2019-03-17T12:26:49.842Z,807.80
2019-03-17T12:27:49.853Z,808.23
2019-03-17T12:28:49.867Z,808.19